Endicott, WA

5:29 AM PDT on September 20, 2014 (GMT -0700)
Pullman-Moscow Regional | Change Station
CLOSE
Current Station
Airport
Location: Pullman,
Elevation: 2552 ft
Nearby Weather Stations

Elev 2552 ft 46.74 °N, 117.12 °W | Updated 36 minutes ago

Clear
Clear
55 °F
Feels Like 55 °F
N
5
Wind Variable Wind from ENE

Today
High -- | Low -- °F
--% Chance of Precip.
Yesterday
High -- | Low -- °F
Precip. -- in
6:35 AM 6:52 PM
Waning Crescent, 12% visible
Pressure 30.14 in
Visibility 10.0 miles
Clouds Clear
Dew Point 44 °F
Humidity 67%
Rainfall 0.00 in
Snow Depth 0 in , 0 in , 0 in
UV 0 out of 12
Pollen 7.80 out of 12
Air Quality Not available.
Flu Activity Not available.
METAR KPUW 201153Z AUTO 06004KT 10SM CLR 13/07 A3016 RMK AO2 SLP204 T01280067 10150 20089 53004

More Conditions Fewer Conditions

Pressure 30.14 in
Visibility 10.0 miles
Clouds Clear
Dew Point 44 °F
Humidity 67%
Rainfall 0.00 in
Snow Depth 0 in , 0 in , 0 in
UV 0 out of 12
Pollen 7.80 out of 12
Air Quality Not available.
Flu Activity Not available.
METAR KPUW 201153Z AUTO 06004KT 10SM CLR 13/07 A3016 RMK AO2 SLP204 T01280067 10150 20089 53004

More Conditions Fewer Conditions

10-Day Weather Forecast

Almanac

Astronomy

Sep. 20, 2014 Rise Set
Actual Time 6:35 AM PDT 6:52 PM PDT
Civil Twilight 6:04 AM PDT 7:22 PM PDT
Nautical Twilight 5:28 AM PDT 7:58 PM PDT
Astronomical Twilight 4:51 AM PDT 8:35 PM PDT
Moon 3:08 AM PDT 5:06 PM PDT
Length of Visible Light 13h 17m
Length of Day
12h 17m
Tomorrow will be 3m 20s shorter.
Waning Crescent, 12% of the Moon is Illuminated
Today
Waning Crescent
Sep 24
New
Oct 1
First Quarter
Oct 8
Full
Oct 15
Last Quarter

Today's Extremes

State Highs State Lows

Community

WunderPhotos

Upload Photos

1,754,840 photos uploaded!

Nearby

Snow Depth

Station Depth Elevation
June Lake 0 in 3340 ft
Sourdough Gulch 0 in 4000 ft
Bunchgrass Meadow 0 in 5000 ft
White Pass E.S. 0 in 4500 ft
Rainy Pass 0 in 4780 ft

Earthquake Activity

City Distance Mag. Time & Date
No recent earthquake activity has been reported nearby.
Minimum magnitude displayed is 2.5.

Coastal Water Temperatures

Place Temperature
No Stations Reporting

Nearby Weather Stations